Redstone Army Air Field
KHUA : now visible

Airfield :











YOU CAN JOIN US ON...

 
LOGIN :

Register | Disclaimer

   EN    FR    IT 

 









Legend :    VFR   Marginal VFR   IFR   Intensive IFR   Very Intensive IFR
Visi :
Ceiling :
>= 8 km
>= 3000ft
5 to 8 km
1000 to 3000 ft
1500m to 5 km
500 to 1000 ft
800 to 1500m
200 to 500 ft
< 800m
< 200 ft
Symbols :   Thunderstorms  Fog  Heavy snow  Heavy precipitations  Wind > 20 kt






- Airport Elevation : 684 ft


KHUA - Redstone Army Air Field

CURRENT METAR :
  • 220855Z AUTO 00000KT 10SM FEW250 23/20 A3012 RMK AO2 SLPNO T02260199 55000 $

EXPIRED METARs :
  • 220755Z AUTO 00000KT 10SM FEW290 23/20 A3011 RMK AO2 SLPNO T02330200 $
  • 220655Z AUTO 00000KT 10SM FEW290 23/20 A3011 RMK AO2 SLPNO T02340203 $
  • 220555Z AUTO 19003KT 10SM CLR 24/20 A3012 RMK AO2 SLPNO T02400201 10274 20237 58002 $
  • 220455Z AUTO 00000KT 10SM CLR 24/20 A3013 RMK AO2 SLPNO T02420201 $

TAF AMD TAF KHUA
Valid from the 22 at 00:00 until the 23 at 02:00 UTC


220000Z 2200/2302 VRB06KT 9999 SCT050 QNH2999INS TX34/2220Z TN21/2211Z LAST NO AMDS AFT 2200 NEXT 2412
KZME FIR / North America



MET'MAP, your aeronautical weather chart ! - Copyright ORBIFLY December 2007 - Disclaimer

ORBIFLY MET'MAP TEAM :

Programming & Development : Alexandra Zaïnal
Original concept : Baudouin d'Aumeries
Technical & hardware support : Manuel Goepfert
Assistance : Marc-Olivier Méhu




SOURCES & CREDITS :

   NOAA       Earth
Advisory